Stéphane.

Stéphane.

Responsable technique.
20 ans d’expérience militaire sur Jaguar et Rafale.

Mécano Stephane - Team Sparflex - Fly and Fun

Voir toute les actualités.

Avion / Hélicoptère / Simulateur*
Avion
METAR :

LFQA 310300Z AUTO 14009KT 9999 FEW027/// BKN060/// BKN070/// ///CB 10/09 Q1002


vue en direct sur l'aérodrome
facturation mentions légales politique de confidentialité
Cochet Concept
cx